Time,TemperatureF,DewpointF,PressureIn,WindDirection,WindDirectionDegrees,WindSpeedMPH,WindSpeedGustMPH,Humidity,HourlyPrecipIn,Conditions,Clouds,dailyrainin,SoftwareType,DateUTC
2013-02-21 00:03:00,30.0,13.0,-100.00,SSW,208,5.0,9.0,49,0.00,,,0.00,,2013-02-21 05:03:00,
2013-02-21 00:12:00,30.0,13.0,-100.00,SSW,208,5.0,9.0,49,0.00,,,0.00,,2013-02-21 05:12:00,
2013-02-21 00:22:00,31.0,13.0,-100.00,South,186,4.0,7.0,48,0.00,,,0.00,,2013-02-21 05:22:00,
2013-02-21 00:36:00,31.0,13.0,-100.00,South,184,4.0,8.0,48,0.00,,,0.00,,2013-02-21 05:36:00,
2013-02-21 00:46:00,31.0,13.0,-100.00,South,184,4.0,8.0,48,0.00,,,0.00,,2013-02-21 05:46:00,
2013-02-21 01:01:00,30.0,14.0,-100.00,South,185,5.0,10.0,51,0.00,,,0.00,,2013-02-21 06:01:00,
2013-02-21 01:11:00,30.0,14.0,-100.00,South,185,5.0,10.0,51,0.00,,,0.00,,2013-02-21 06:11:00,
2013-02-21 01:21:00,30.0,13.0,-100.00,South,184,5.0,9.0,50,0.00,,,0.00,,2013-02-21 06:21:00,
2013-02-21 01:31:00,30.0,13.0,-100.00,South,184,5.0,9.0,50,0.00,,,0.00,,2013-02-21 06:31:00,
2013-02-21 01:41:00,29.0,14.0,-100.00,South,184,4.0,8.0,52,0.00,,,0.00,,2013-02-21 06:41:00,
2013-02-21 01:52:00,29.0,13.0,-100.00,SSW,192,5.0,10.0,51,0.00,,,0.00,,2013-02-21 06:52:00,
2013-02-21 02:01:00,29.0,13.0,-100.00,SSW,192,5.0,10.0,51,0.00,,,0.00,,2013-02-21 07:01:00,
2013-02-21 02:11:00,29.0,13.0,-100.00,SSW,192,5.0,10.0,51,0.00,,,0.00,,2013-02-21 07:11:00,
2013-02-21 02:21:00,27.0,14.0,-100.00,South,185,4.0,9.0,56,0.00,,,0.00,,2013-02-21 07:21:00,
2013-02-21 02:32:00,27.0,14.0,-100.00,South,185,4.0,9.0,56,0.00,,,0.00,,2013-02-21 07:32:00,
2013-02-21 02:42:00,28.0,13.0,-100.00,South,184,4.0,11.0,53,0.00,,,0.00,,2013-02-21 07:42:00,
2013-02-21 02:52:00,28.0,13.0,-100.00,South,184,4.0,11.0,53,0.00,,,0.00,,2013-02-21 07:52:00,
2013-02-21 03:02:00,29.0,12.0,-100.00,SSW,192,5.0,9.0,50,0.00,,,0.00,,2013-02-21 08:02:00,
2013-02-21 03:11:00,29.0,12.0,-100.00,SSW,192,5.0,9.0,50,0.00,,,0.00,,2013-02-21 08:11:00,
2013-02-21 03:21:00,28.0,13.0,-100.00,South,185,4.0,8.0,51,0.00,,,0.00,,2013-02-21 08:21:00,
2013-02-21 03:32:00,28.0,13.0,-100.00,South,185,4.0,8.0,51,0.00,,,0.00,,2013-02-21 08:32:00,
2013-02-21 03:42:00,27.0,14.0,-100.00,South,181,3.0,6.0,57,0.00,,,0.00,,2013-02-21 08:42:00,
2013-02-21 03:52:00,27.0,13.0,-100.00,South,185,4.0,9.0,56,0.00,,,0.00,,2013-02-21 08:52:00,
2013-02-21 04:02:00,27.0,13.0,-100.00,South,185,4.0,9.0,56,0.00,,,0.00,,2013-02-21 09:02:00,
2013-02-21 04:11:00,27.0,13.0,-100.00,South,185,4.0,9.0,56,0.00,,,0.00,,2013-02-21 09:11:00,
2013-02-21 04:22:00,27.0,13.0,-100.00,South,185,4.0,9.0,56,0.00,,,0.00,,2013-02-21 09:22:00,
2013-02-21 07:01:00,24.0,11.0,-100.00,NNW,346,1.0,3.0,57,0.00,,,0.00,,2013-02-21 12:01:00,
2013-02-21 07:11:00,24.0,11.0,-100.00,NNW,346,1.0,3.0,57,0.00,,,0.00,,2013-02-21 12:11:00,
2013-02-21 07:22:00,24.0,11.0,-100.00,NNW,343,1.0,4.0,58,0.00,,,0.00,,2013-02-21 12:22:00,
2013-02-21 07:32:00,24.0,11.0,-100.00,NNW,343,1.0,4.0,58,0.00,,,0.00,,2013-02-21 12:32:00,
2013-02-21 07:43:00,25.0,13.0,-100.00,South,169,2.0,6.0,60,0.00,,,0.00,,2013-02-21 12:43:00,
2013-02-21 07:53:00,25.0,13.0,-100.00,South,169,2.0,6.0,60,0.00,,,0.00,,2013-02-21 12:53:00,
2013-02-21 08:02:00,23.0,12.0,-100.00,NNE,24,2.0,5.0,62,0.00,,,0.00,,2013-02-21 13:02:00,
2013-02-21 08:12:00,23.0,12.0,-100.00,NNE,24,2.0,5.0,62,0.00,,,0.00,,2013-02-21 13:12:00,
2013-02-21 08:22:00,25.0,13.0,-100.00,East,95,2.0,3.0,60,0.00,,,0.00,,2013-02-21 13:22:00,
2013-02-21 08:32:00,25.0,13.0,-100.00,East,95,2.0,3.0,60,0.00,,,0.00,,2013-02-21 13:32:00,
2013-02-21 08:42:00,28.0,11.0,-100.00,SSW,199,3.0,6.0,48,0.00,,,0.00,,2013-02-21 13:42:00,
2013-02-21 08:52:00,28.0,11.0,-100.00,SSW,199,3.0,6.0,48,0.00,,,0.00,,2013-02-21 13:52:00,
2013-02-21 09:02:00,29.0,10.0,-100.00,SSW,208,3.0,7.0,46,0.00,,,0.00,,2013-02-21 14:02:00,
2013-02-21 09:11:00,29.0,10.0,-100.00,SSW,208,3.0,7.0,46,0.00,,,0.00,,2013-02-21 14:11:00,
2013-02-21 09:22:00,29.0,11.0,-100.00,SSW,212,4.0,9.0,47,0.00,,,0.00,,2013-02-21 14:22:00,
2013-02-21 09:32:00,29.0,11.0,-100.00,SSW,212,4.0,9.0,47,0.00,,,0.00,,2013-02-21 14:32:00,
2013-02-21 09:42:00,31.0,10.0,-100.00,SW,216,4.0,9.0,42,0.00,,,0.00,,2013-02-21 14:42:00,
2013-02-21 09:52:00,31.0,10.0,-100.00,SW,216,4.0,9.0,42,0.00,,,0.00,,2013-02-21 14:52:00,
2013-02-21 10:02:00,32.0,11.0,-100.00,SSW,193,5.0,11.0,40,0.00,,,0.00,,2013-02-21 15:02:00,
2013-02-21 10:12:00,32.0,11.0,-100.00,SSW,193,5.0,11.0,40,0.00,,,0.00,,2013-02-21 15:12:00,
2013-02-21 10:22:00,32.0,10.0,-100.00,SSW,206,6.0,11.0,39,0.00,,,0.00,,2013-02-21 15:22:00,
2013-02-21 10:32:00,32.0,10.0,-100.00,SSW,206,6.0,11.0,39,0.00,,,0.00,,2013-02-21 15:32:00,
2013-02-21 10:42:00,33.0,11.0,-100.00,SSW,209,6.0,11.0,39,0.00,,,0.00,,2013-02-21 15:42:00,
2013-02-21 10:52:00,33.0,11.0,-100.00,SSW,209,6.0,11.0,39,0.00,,,0.00,,2013-02-21 15:52:00,
2013-02-21 11:02:00,35.0,11.0,-100.00,SSW,212,4.0,10.0,36,0.00,,,0.00,,2013-02-21 16:02:00,
2013-02-21 11:12:00,35.0,11.0,-100.00,SSW,212,4.0,10.0,36,0.00,,,0.00,,2013-02-21 16:12:00,
2013-02-21 11:22:00,35.0,11.0,-100.00,SW,217,5.0,12.0,36,0.00,,,0.00,,2013-02-21 16:22:00,
2013-02-21 11:32:00,36.0,11.0,-100.00,SSW,205,6.0,11.0,34,0.00,,,0.00,,2013-02-21 16:32:00,
2013-02-21 11:42:00,36.0,11.0,-100.00,SSW,205,6.0,11.0,34,0.00,,,0.00,,2013-02-21 16:42:00,
2013-02-21 11:52:00,36.0,11.0,-100.00,SSW,205,6.0,11.0,34,0.00,,,0.00,,2013-02-21 16:52:00,
2013-02-21 12:02:00,38.0,10.0,-100.00,South,188,5.0,9.0,31,0.00,,,0.00,,2013-02-21 17:02:00,
2013-02-21 12:11:00,38.0,10.0,-100.00,South,188,5.0,9.0,31,0.00,,,0.00,,2013-02-21 17:11:00,
2013-02-21 12:21:00,38.0,10.0,-100.00,SSW,208,7.0,11.0,32,0.00,,,0.00,,2013-02-21 17:21:00,
2013-02-21 12:32:00,38.0,10.0,-100.00,SSW,208,7.0,11.0,32,0.00,,,0.00,,2013-02-21 17:32:00,
2013-02-21 12:42:00,40.0,11.0,-100.00,SSW,199,5.0,11.0,30,0.00,,,0.00,,2013-02-21 17:42:00,
2013-02-21 12:52:00,40.0,11.0,-100.00,SSW,199,5.0,11.0,30,0.00,,,0.00,,2013-02-21 17:52:00,
2013-02-21 13:02:00,42.0,11.0,-100.00,SW,224,5.0,12.0,28,0.00,,,0.00,,2013-02-21 18:02:00,
2013-02-21 13:12:00,42.0,11.0,-100.00,SW,224,5.0,12.0,28,0.00,,,0.00,,2013-02-21 18:12:00,
2013-02-21 13:22:00,42.0,11.0,-100.00,SSW,209,5.0,12.0,28,0.00,,,0.00,,2013-02-21 18:22:00,
2013-02-21 13:32:00,42.0,11.0,-100.00,SSW,205,7.0,12.0,28,0.00,,,0.00,,2013-02-21 18:32:00,
2013-02-21 13:42:00,42.0,11.0,-100.00,SSW,205,7.0,12.0,28,0.00,,,0.00,,2013-02-21 18:42:00,
2013-02-21 13:52:00,42.0,11.0,-100.00,SSW,205,7.0,12.0,28,0.00,,,0.00,,2013-02-21 18:52:00,
2013-02-21 14:02:00,44.0,12.0,-100.00,South,191,5.0,12.0,26,0.00,,,0.00,,2013-02-21 19:02:00,
2013-02-21 14:12:00,44.0,12.0,-100.00,South,191,5.0,12.0,26,0.00,,,0.00,,2013-02-21 19:12:00,
2013-02-21 14:21:00,44.0,12.0,-100.00,SSE,167,4.0,9.0,26,0.00,,,0.00,,2013-02-21 19:21:00,
2013-02-21 14:32:00,44.0,12.0,-100.00,SSE,167,4.0,9.0,26,0.00,,,0.00,,2013-02-21 19:32:00,
2013-02-21 14:42:00,46.0,12.0,-100.00,South,189,5.0,10.0,25,0.00,,,0.00,,2013-02-21 19:42:00,
2013-02-21 14:52:00,46.0,12.0,-100.00,South,189,5.0,10.0,25,0.00,,,0.00,,2013-02-21 19:52:00,
2013-02-21 15:01:00,47.0,12.0,-100.00,SSW,195,5.0,12.0,24,0.00,,,0.00,,2013-02-21 20:01:00,
2013-02-21 15:11:00,47.0,12.0,-100.00,SSW,195,5.0,12.0,24,0.00,,,0.00,,2013-02-21 20:11:00,
2013-02-21 15:21:00,47.0,12.0,-100.00,WNW,289,3.0,10.0,24,0.00,,,0.00,,2013-02-21 20:21:00,
2013-02-21 15:32:00,47.0,12.0,-100.00,WNW,289,3.0,10.0,24,0.00,,,0.00,,2013-02-21 20:32:00,
2013-02-21 15:42:00,47.0,12.0,-100.00,South,174,4.0,10.0,23,0.00,,,0.00,,2013-02-21 20:42:00,
2013-02-21 15:53:00,47.0,12.0,-100.00,South,174,4.0,10.0,23,0.00,,,0.00,,2013-02-21 20:53:00,
2013-02-21 16:02:00,49.0,11.0,-100.00,South,191,6.0,10.0,22,0.00,,,0.00,,2013-02-21 21:02:00,
2013-02-21 16:12:00,49.0,11.0,-100.00,South,191,6.0,10.0,22,0.00,,,0.00,,2013-02-21 21:12:00,
2013-02-21 16:22:00,49.0,13.0,-100.00,South,188,4.0,9.0,23,0.00,,,0.00,,2013-02-21 21:22:00,
2013-02-21 16:32:00,49.0,13.0,-100.00,South,188,4.0,9.0,23,0.00,,,0.00,,2013-02-21 21:32:00,
2013-02-21 16:42:00,50.0,12.0,-100.00,South,176,4.0,8.0,22,0.00,,,0.00,,2013-02-21 21:42:00,
2013-02-21 16:52:00,50.0,12.0,-100.00,South,176,4.0,8.0,22,0.00,,,0.00,,2013-02-21 21:52:00,
2013-02-21 17:01:00,48.0,12.0,-100.00,South,191,4.0,7.0,23,0.00,,,0.00,,2013-02-21 22:01:00,
2013-02-21 17:11:00,48.0,12.0,-100.00,South,191,4.0,7.0,23,0.00,,,0.00,,2013-02-21 22:11:00,
2013-02-21 17:21:00,48.0,12.0,-100.00,SE,124,2.0,4.0,24,0.00,,,0.00,,2013-02-21 22:21:00,
2013-02-21 17:32:00,48.0,12.0,-100.00,SE,124,2.0,4.0,24,0.00,,,0.00,,2013-02-21 22:32:00,
2013-02-21 17:42:00,47.0,13.0,-100.00,SSW,205,2.0,4.0,25,0.00,,,0.00,,2013-02-21 22:42:00,
2013-02-21 17:52:00,47.0,13.0,-100.00,SSW,205,2.0,4.0,25,0.00,,,0.00,,2013-02-21 22:52:00,
2013-02-21 18:01:00,46.0,14.0,-100.00,West,261,1.0,5.0,27,0.00,,,0.00,,2013-02-21 23:01:00,
2013-02-21 18:11:00,46.0,14.0,-100.00,West,261,1.0,5.0,27,0.00,,,0.00,,2013-02-21 23:11:00,
2013-02-21 18:21:00,45.0,15.0,-100.00,NNE,30,2.0,5.0,29,0.00,,,0.00,,2013-02-21 23:21:00,
2013-02-21 18:32:00,45.0,15.0,-100.00,NNE,30,2.0,5.0,29,0.00,,,0.00,,2013-02-21 23:32:00,
2013-02-21 18:42:00,43.0,14.0,-100.00,North,7,2.0,5.0,31,0.00,,,0.00,,2013-02-21 23:42:00,
2013-02-21 18:53:00,43.0,14.0,-100.00,North,7,2.0,5.0,31,0.00,,,0.00,,2013-02-21 23:53:00,
2013-02-21 19:02:00,42.0,16.0,-100.00,North,357,1.0,5.0,34,0.00,,,0.00,,2013-02-22 00:02:00,
2013-02-21 19:11:00,42.0,16.0,-100.00,North,357,1.0,5.0,34,0.00,,,0.00,,2013-02-22 00:11:00,
2013-02-21 19:22:00,40.0,19.0,-100.00,North,0,1.0,5.0,42,0.00,,,0.00,,2013-02-22 00:22:00,
2013-02-21 19:32:00,40.0,17.0,-100.00,NNE,23,2.0,5.0,39,0.00,,,0.00,,2013-02-22 00:32:00,
2013-02-21 19:42:00,40.0,17.0,-100.00,NNE,23,2.0,5.0,39,0.00,,,0.00,,2013-02-22 00:42:00,
2013-02-21 19:52:00,40.0,17.0,-100.00,NNE,23,2.0,5.0,39,0.00,,,0.00,,2013-02-22 00:52:00,
2013-02-21 20:01:00,36.0,20.0,-100.00,WSW,241,2.0,3.0,51,0.00,,,0.00,,2013-02-22 01:01:00,
2013-02-21 20:11:00,36.0,20.0,-100.00,WSW,241,2.0,3.0,51,0.00,,,0.00,,2013-02-22 01:11:00,
2013-02-21 20:22:00,37.0,20.0,-100.00,North,0,0.0,3.0,51,0.00,,,0.00,,2013-02-22 01:22:00,
2013-02-21 20:32:00,37.0,20.0,-100.00,North,0,0.0,3.0,51,0.00,,,0.00,,2013-02-22 01:32:00,
2013-02-21 20:42:00,37.0,22.0,-100.00,ENE,61,2.0,6.0,54,0.00,,,0.00,,2013-02-22 01:42:00,
2013-02-21 20:52:00,37.0,22.0,-100.00,ENE,61,2.0,6.0,54,0.00,,,0.00,,2013-02-22 01:52:00,
2013-02-21 21:02:00,36.0,20.0,-100.00,North,6,3.0,8.0,51,0.00,,,0.00,,2013-02-22 02:02:00,
2013-02-21 21:11:00,36.0,20.0,-100.00,North,6,3.0,8.0,51,0.00,,,0.00,,2013-02-22 02:11:00,
2013-02-21 21:22:00,40.0,17.0,-100.00,NE,40,8.0,14.0,39,0.00,,,0.00,,2013-02-22 02:22:00,
2013-02-21 21:32:00,40.0,17.0,-100.00,NE,40,8.0,14.0,39,0.00,,,0.00,,2013-02-22 02:32:00,
2013-02-21 21:42:00,40.0,17.0,-100.00,NE,40,8.0,14.0,39,0.00,,,0.00,,2013-02-22 02:42:00,
2013-02-21 22:02:00,40.0,17.0,-100.00,NE,44,7.0,11.0,39,0.00,,,0.00,,2013-02-22 03:02:00,
2013-02-21 22:11:00,40.0,17.0,-100.00,NE,44,7.0,11.0,39,0.00,,,0.00,,2013-02-22 03:11:00,
2013-02-21 22:21:00,39.0,17.0,-100.00,NE,51,5.0,10.0,41,0.00,,,0.00,,2013-02-22 03:21:00,
2013-02-21 22:32:00,39.0,17.0,-100.00,NE,51,5.0,10.0,41,0.00,,,0.00,,2013-02-22 03:32:00,
2013-02-21 22:42:00,39.0,17.0,-100.00,NE,48,8.0,12.0,40,0.00,,,0.00,,2013-02-22 03:42:00,
2013-02-21 22:52:00,39.0,17.0,-100.00,NE,48,8.0,12.0,40,0.00,,,0.00,,2013-02-22 03:52:00,
2013-02-21 23:02:00,39.0,17.0,-100.00,NE,40,9.0,17.0,40,0.00,,,0.00,,2013-02-22 04:02:00,
2013-02-21 23:11:00,39.0,17.0,-100.00,NE,40,9.0,17.0,40,0.00,,,0.00,,2013-02-22 04:11:00,
2013-02-21 23:21:00,38.0,17.0,-100.00,NE,38,9.0,13.0,42,0.00,,,0.00,,2013-02-22 04:21:00,
2013-02-21 23:32:00,38.0,17.0,-100.00,NE,38,9.0,13.0,42,0.00,,,0.00,,2013-02-22 04:32:00,
2013-02-21 23:42:00,38.0,16.0,-100.00,NE,44,9.0,14.0,41,0.00,,,0.00,,2013-02-22 04:42:00,
2013-02-21 23:52:00,38.0,16.0,-100.00,NE,44,9.0,14.0,41,0.00,,,0.00,,2013-02-22 04:52:00,